createdAt,value
2022-11-07T00:01:49.005Z,156695.63
2022-11-07T00:04:17.341Z,156682.38
2022-11-07T00:06:44.830Z,156675.75
2022-11-07T00:09:12.521Z,156669.13
2022-11-07T00:11:39.925Z,156661.19
2022-11-07T00:14:07.554Z,156642.63
2022-11-07T00:16:35.160Z,156661.19
2022-11-07T00:19:03.340Z,156645.28
2022-11-07T00:21:30.661Z,156695.63
2022-11-07T00:23:58.372Z,156744.63
2022-11-07T00:26:25.604Z,156759.19
2022-11-07T00:28:53.371Z,156812.22
2022-11-07T00:31:20.784Z,156865.19
2022-11-07T00:33:48.724Z,156940.75
2022-11-07T00:36:27.396Z,157001.75
2022-11-07T00:38:56.080Z,157022.97
2022-11-07T00:41:23.698Z,157058.78
2022-11-07T00:43:51.886Z,157098.56
2022-11-07T00:46:19.913Z,157117.09
2022-11-07T00:48:48.236Z,157160.88
2022-11-07T00:51:21.051Z,157168.88
2022-11-07T00:53:48.927Z,157188.72
2022-11-07T00:56:19.787Z,157213.94
2022-11-07T00:58:47.762Z,157224.59
2022-11-07T01:01:21.159Z,157237.81
2022-11-07T01:04:07.883Z,157264.34
2022-11-07T01:06:38.259Z,157282.97
2022-11-07T01:09:08.253Z,157296.22
2022-11-07T01:11:37.880Z,157314.78
2022-11-07T01:14:06.463Z,157337.38
2022-11-07T01:16:35.631Z,157344.00
2022-11-07T01:19:04.163Z,157369.19
2022-11-07T01:21:31.561Z,157391.75
2022-11-07T01:24:00.430Z,157402.41
2022-11-07T01:26:28.016Z,157432.91
2022-11-07T01:28:55.782Z,157446.19
2022-11-07T01:31:23.212Z,157459.47
2022-11-07T01:33:51.131Z,157454.16
2022-11-07T01:36:19.122Z,157490.00
2022-11-07T01:38:50.886Z,157491.38
2022-11-07T01:41:26.789Z,157494.00
2022-11-07T01:44:11.637Z,157517.88
2022-11-07T01:46:44.437Z,157531.16
2022-11-07T01:49:25.106Z,157551.09
2022-11-07T01:52:04.393Z,157557.75
2022-11-07T01:54:35.105Z,157568.38
2022-11-07T01:57:10.163Z,157575.03
2022-11-07T01:59:39.131Z,157598.91
2022-11-07T02:02:07.270Z,157624.16
2022-11-07T02:04:35.292Z,157637.41
2022-11-07T02:07:06.992Z,157628.13
2022-11-07T02:09:35.116Z,157629.44
2022-11-07T02:12:03.180Z,157638.78
2022-11-07T02:14:31.102Z,157654.72
2022-11-07T02:16:58.534Z,157673.31
2022-11-07T02:19:49.512Z,157679.97
2022-11-07T02:22:22.556Z,157668.00
2022-11-07T02:24:52.739Z,157677.28
2022-11-07T02:27:21.980Z,157683.91
2022-11-07T02:29:53.721Z,157695.91
2022-11-07T02:32:21.065Z,157721.09
2022-11-07T02:35:03.797Z,157721.09
2022-11-07T02:37:38.945Z,157711.81
2022-11-07T02:40:10.405Z,157735.72
2022-11-07T02:42:44.744Z,157755.66
2022-11-07T02:45:25.261Z,157771.63
2022-11-07T02:47:54.104Z,157786.25
2022-11-07T02:50:22.111Z,157796.84
2022-11-07T02:52:49.530Z,157822.13
2022-11-07T02:55:17.562Z,157850.03
2022-11-07T02:57:45.226Z,157871.31
2022-11-07T03:00:14.365Z,157850.03
2022-11-07T03:02:47.485Z,157877.97
2022-11-07T03:05:20.041Z,157876.63
2022-11-07T03:07:48.972Z,157867.31
2022-11-07T03:10:17.623Z,157873.94
2022-11-07T03:12:44.981Z,157879.28
2022-11-07T03:15:13.592Z,157883.28
2022-11-07T03:17:41.619Z,157873.94
2022-11-07T03:20:10.132Z,157876.63
2022-11-07T03:22:37.560Z,157896.53
2022-11-07T03:25:06.510Z,157895.22
2022-11-07T03:27:33.862Z,157899.22
2022-11-07T03:30:01.770Z,157903.19
2022-11-07T03:32:29.114Z,157900.53
2022-11-07T03:34:56.871Z,157905.88
2022-11-07T03:37:24.081Z,157908.50
2022-11-07T03:39:51.772Z,157904.56
2022-11-07T03:42:19.342Z,157893.91
2022-11-07T03:44:46.984Z,157907.19
2022-11-07T03:47:14.480Z,157903.19
2022-11-07T03:49:42.254Z,157916.47
2022-11-07T03:52:10.823Z,157940.44
2022-11-07T03:54:39.565Z,157932.47
2022-11-07T03:57:08.333Z,157940.44
2022-11-07T03:59:36.070Z,157967.00
2022-11-07T04:02:03.588Z,157980.28
2022-11-07T04:04:32.435Z,158004.25
2022-11-07T04:06:59.903Z,158013.56
2022-11-07T04:09:27.496Z,158014.88
2022-11-07T04:12:13.762Z,158026.84
2022-11-07T04:15:00.379Z,158064.06
2022-11-07T04:17:29.359Z,158065.41
2022-11-07T04:19:57.364Z,158081.38
2022-11-07T04:22:25.781Z,158080.06
2022-11-07T04:24:53.656Z,158105.31
2022-11-07T04:27:40.003Z,158104.00
2022-11-07T04:30:19.697Z,158121.25
2022-11-07T04:32:48.727Z,158134.56
2022-11-07T04:35:17.207Z,158158.59
2022-11-07T04:37:44.992Z,158174.53
2022-11-07T04:40:12.766Z,158169.22
2022-11-07T04:42:40.461Z,158177.19
2022-11-07T04:45:08.840Z,158185.22
2022-11-07T04:47:40.187Z,158193.19
2022-11-07T04:50:11.943Z,158209.16
2022-11-07T04:52:39.971Z,158210.47
2022-11-07T04:55:10.423Z,158213.09
2022-11-07T04:57:37.852Z,158195.84
2022-11-07T05:00:06.169Z,158190.50
2022-11-07T05:02:33.558Z,158219.75
2022-11-07T05:05:01.520Z,158231.75
2022-11-07T05:07:28.834Z,158247.69
2022-11-07T05:09:56.720Z,158246.38
2022-11-07T05:12:23.977Z,158247.69
2022-11-07T05:14:51.690Z,158257.06
2022-11-07T05:17:19.248Z,158250.41
2022-11-07T05:19:48.012Z,158267.66
2022-11-07T05:22:33.907Z,158269.00
2022-11-07T05:25:01.617Z,158267.66
2022-11-07T05:27:28.939Z,158275.66
2022-11-07T05:29:56.507Z,158258.38
2022-11-07T05:32:45.695Z,158285.00
2022-11-07T05:35:13.214Z,158302.28
2022-11-07T05:37:40.540Z,158304.97
2022-11-07T05:40:08.772Z,158319.59
2022-11-07T05:42:36.222Z,158300.94
2022-11-07T05:45:04.091Z,158315.59
2022-11-07T05:47:31.612Z,158319.59
2022-11-07T05:49:59.352Z,158315.59
2022-11-07T05:52:26.811Z,158304.97
2022-11-07T05:54:54.512Z,158323.56
2022-11-07T05:57:21.970Z,158323.56
2022-11-07T05:59:49.674Z,158312.94
2022-11-07T06:02:17.242Z,158328.91
2022-11-07T06:04:45.145Z,158326.25
2022-11-07T06:07:12.794Z,158327.59
2022-11-07T06:09:40.424Z,158340.91
2022-11-07T06:12:08.157Z,158334.25
2022-11-07T06:14:35.903Z,158339.53
2022-11-07T06:17:03.698Z,158350.19
2022-11-07T06:19:31.625Z,158351.50
2022-11-07T06:22:01.431Z,158350.19
2022-11-07T06:24:29.507Z,158366.16
2022-11-07T06:26:56.995Z,158371.50
2022-11-07T06:29:25.155Z,158352.84
2022-11-07T06:31:56.294Z,158384.81
2022-11-07T06:34:24.812Z,158420.75
2022-11-07T06:37:02.544Z,158431.41
2022-11-07T06:39:30.972Z,158451.34
2022-11-07T06:41:58.252Z,158447.38
2022-11-07T06:44:26.000Z,158471.31
2022-11-07T06:46:53.738Z,158482.00
2022-11-07T06:49:21.309Z,158492.63
2022-11-07T06:51:48.690Z,158490.00
2022-11-07T06:54:16.541Z,158516.63
2022-11-07T06:56:43.910Z,158517.94
2022-11-07T06:59:11.652Z,158543.22
2022-11-07T07:01:39.259Z,158549.88
2022-11-07T07:04:07.081Z,158572.56
2022-11-07T07:06:34.512Z,158561.88
2022-11-07T07:09:02.736Z,158592.50
2022-11-07T07:11:30.232Z,158588.53
2022-11-07T07:14:01.920Z,158625.81
2022-11-07T07:16:29.766Z,158649.81
2022-11-07T07:18:57.449Z,158669.75
2022-11-07T07:21:24.961Z,158685.78
2022-11-07T07:23:53.195Z,158701.75
2022-11-07T07:26:20.564Z,158720.44
2022-11-07T07:28:49.321Z,158744.38
2022-11-07T07:31:19.946Z,158761.75
2022-11-07T07:33:48.842Z,158789.78
2022-11-07T07:36:20.512Z,158785.75
2022-11-07T07:38:49.770Z,158792.41
2022-11-07T07:41:17.831Z,158804.44
2022-11-07T07:43:45.554Z,158811.09
2022-11-07T07:46:19.990Z,158813.75
2022-11-07T07:48:47.570Z,158819.09
2022-11-07T07:51:15.263Z,158832.41
2022-11-07T07:53:42.942Z,158833.75
2022-11-07T07:56:10.380Z,158839.09
2022-11-07T07:58:38.040Z,158827.06
2022-11-07T08:01:10.548Z,158828.41
2022-11-07T08:03:59.634Z,158823.06
2022-11-07T08:06:26.226Z,158853.75
2022-11-07T08:08:53.863Z,158852.38
2022-11-07T08:11:21.638Z,158853.75
2022-11-07T08:13:49.297Z,158864.38
2022-11-07T08:16:16.594Z,158873.69
2022-11-07T08:18:44.472Z,158892.38
2022-11-07T08:21:12.195Z,158883.06
2022-11-07T08:23:40.391Z,158893.69
2022-11-07T08:26:07.777Z,158897.72
2022-11-07T08:28:36.484Z,158899.03
2022-11-07T08:31:06.703Z,158920.38
2022-11-07T08:33:34.922Z,158917.72
2022-11-07T08:36:03.105Z,158936.34
2022-11-07T08:38:32.581Z,158947.03
2022-11-07T08:41:00.512Z,158944.41
2022-11-07T08:43:28.716Z,158987.06
2022-11-07T08:45:56.522Z,158984.34
2022-11-07T08:48:24.819Z,159019.03
2022-11-07T08:50:56.676Z,159033.69
2022-11-07T08:53:25.781Z,159053.69
2022-11-07T08:56:00.105Z,159079.06
2022-11-07T08:58:30.322Z,159096.38
2022-11-07T09:00:58.452Z,159136.41
2022-11-07T09:06:14.022Z,159227.13
2022-11-07T09:08:41.877Z,159267.13
2022-11-07T09:11:09.716Z,159340.59
2022-11-07T09:13:37.888Z,159359.25
2022-11-07T09:16:05.924Z,159375.31
2022-11-07T09:18:34.123Z,159383.31
2022-11-07T09:21:01.371Z,159416.69
2022-11-07T09:23:29.765Z,159414.00
2022-11-07T09:26:00.943Z,159410.00
2022-11-07T09:28:29.977Z,159401.97
2022-11-07T09:31:00.214Z,159384.63
2022-11-07T09:33:28.938Z,159364.59
2022-11-07T09:36:02.072Z,159353.94
2022-11-07T09:38:30.165Z,159372.59
2022-11-07T09:41:23.870Z,159357.94
2022-11-07T09:43:54.881Z,159365.94
2022-11-07T09:46:33.320Z,159368.63
2022-11-07T09:49:22.293Z,159359.25
2022-11-07T09:51:59.286Z,159325.91
2022-11-07T09:54:30.006Z,159333.94
2022-11-07T09:56:59.666Z,159348.59
2022-11-07T09:59:38.430Z,159364.59
2022-11-07T10:02:14.773Z,159371.28
2022-11-07T10:04:44.069Z,159357.94
2022-11-07T10:07:37.002Z,159389.97
2022-11-07T10:10:14.168Z,159414.00
2022-11-07T10:13:00.304Z,159414.00
2022-11-07T10:15:38.594Z,159423.38
2022-11-07T10:18:19.641Z,159443.34
2022-11-07T10:21:31.291Z,159447.38
2022-11-07T10:24:15.902Z,159451.34
2022-11-07T10:26:46.371Z,159451.34
2022-11-07T10:29:19.462Z,159463.38
2022-11-07T10:31:55.295Z,159456.69
2022-11-07T10:34:42.348Z,159496.78
2022-11-07T10:37:10.311Z,159515.47
2022-11-07T10:39:38.036Z,159492.75
2022-11-07T10:42:07.345Z,159498.09
2022-11-07T10:44:35.672Z,159480.75
2022-11-07T10:47:03.733Z,159475.41
2022-11-07T10:49:32.714Z,159450.03
2022-11-07T10:52:14.891Z,159462.06
2022-11-07T10:54:43.631Z,159460.72
2022-11-07T10:57:19.955Z,159448.69
2022-11-07T10:59:50.450Z,159460.72
2022-11-07T11:02:32.813Z,159463.38
2022-11-07T11:05:03.020Z,159470.06
2022-11-07T11:07:36.885Z,159480.75
2022-11-07T11:10:14.037Z,159484.75
2022-11-07T11:12:46.252Z,159470.06
2022-11-07T11:15:19.642Z,159460.72
2022-11-07T11:17:48.214Z,159462.06
2022-11-07T11:20:27.673Z,159446.03
2022-11-07T11:22:55.417Z,159415.31
2022-11-07T11:25:23.993Z,159419.34
2022-11-07T11:27:55.888Z,159408.63
2022-11-07T11:30:23.599Z,159376.63
2022-11-07T11:32:51.373Z,159395.34
2022-11-07T11:35:43.400Z,159401.97
2022-11-07T11:38:13.736Z,159424.69
2022-11-07T11:40:42.922Z,159392.63
2022-11-07T11:43:20.458Z,159389.97
2022-11-07T11:46:25.586Z,159395.34
2022-11-07T11:49:01.035Z,159391.31
2022-11-07T11:51:37.114Z,159377.94
2022-11-07T11:54:11.599Z,159379.28
2022-11-07T11:56:44.816Z,159365.94
2022-11-07T11:59:18.586Z,159355.28
2022-11-07T12:01:56.702Z,159328.56
2022-11-07T12:04:27.810Z,159375.31
2022-11-07T12:07:02.521Z,159360.63
2022-11-07T12:09:42.891Z,159384.63
2022-11-07T12:12:19.555Z,159379.28
2022-11-07T12:15:20.332Z,159371.28
2022-11-07T12:17:53.305Z,159344.56
2022-11-07T12:20:25.447Z,159341.94
2022-11-07T12:23:07.009Z,159335.25
2022-11-07T12:25:44.909Z,159324.59
2022-11-07T12:28:44.006Z,159301.88
2022-11-07T12:31:26.055Z,159292.56
2022-11-07T12:34:20.351Z,159325.91
2022-11-07T12:37:04.469Z,159365.94
2022-11-07T12:39:43.610Z,159368.63
2022-11-07T12:42:19.083Z,159367.31
2022-11-07T12:44:56.177Z,159375.31
2022-11-07T12:47:46.644Z,159388.66
2022-11-07T12:50:23.174Z,159408.63
2022-11-07T12:53:23.028Z,159419.34
2022-11-07T12:55:52.854Z,159426.00
2022-11-07T12:58:34.357Z,159434.03
2022-11-07T13:01:02.537Z,159431.38
2022-11-07T13:03:45.982Z,159435.34
2022-11-07T13:06:18.813Z,159422.00
2022-11-07T13:08:57.725Z,159430.00
2022-11-07T13:11:32.947Z,159440.69
2022-11-07T13:14:33.227Z,159424.69
2022-11-07T13:17:20.725Z,159414.00
2022-11-07T13:20:20.836Z,159395.34
2022-11-07T13:22:49.802Z,159361.94
2022-11-07T13:25:22.739Z,159352.56
2022-11-07T13:27:56.071Z,159320.56
2022-11-07T13:30:40.232Z,159327.25
2022-11-07T13:33:25.271Z,159300.53
2022-11-07T13:35:55.509Z,159303.19
2022-11-07T13:38:24.769Z,159295.19
2022-11-07T13:41:04.911Z,159300.53
2022-11-07T13:44:02.729Z,159281.84
2022-11-07T13:46:47.078Z,159269.81
2022-11-07T13:49:25.109Z,159247.16
2022-11-07T13:51:53.785Z,159224.44
2022-11-07T13:54:27.678Z,159205.78
2022-11-07T13:56:59.850Z,159169.78
2022-11-07T13:59:44.488Z,159187.09
2022-11-07T14:02:38.535Z,159195.09
2022-11-07T14:05:18.511Z,159199.13
2022-11-07T14:07:54.324Z,159200.44
2022-11-07T14:10:42.387Z,159199.13
2022-11-07T14:13:30.336Z,159193.75
2022-11-07T14:16:00.697Z,159197.78
2022-11-07T14:18:32.282Z,159187.09
2022-11-07T14:21:00.492Z,159183.06
2022-11-07T14:23:30.231Z,159187.09
2022-11-07T14:26:00.991Z,159185.75
2022-11-07T14:28:40.677Z,159189.75
2022-11-07T14:31:16.680Z,159167.06
2022-11-07T14:33:49.495Z,159164.44
2022-11-07T14:36:17.697Z,159173.75
2022-11-07T14:38:48.371Z,159159.06
2022-11-07T14:41:16.356Z,159144.41
2022-11-07T14:43:45.194Z,159168.41
2022-11-07T14:46:19.289Z,159152.41
2022-11-07T14:48:49.540Z,159169.78
2022-11-07T14:51:24.726Z,159147.06
2022-11-07T14:53:55.742Z,159148.38
2022-11-07T14:56:31.002Z,159129.75
2022-11-07T14:58:59.170Z,159136.41
2022-11-07T15:01:35.910Z,159125.72
2022-11-07T15:04:30.367Z,159128.41
2022-11-07T15:06:57.793Z,159123.06
2022-11-07T15:09:33.787Z,159132.38
2022-11-07T15:12:01.548Z,159127.03
2022-11-07T15:14:35.298Z,159112.38
2022-11-07T15:17:06.389Z,159111.03
2022-11-07T15:19:34.954Z,159101.72
2022-11-07T15:22:04.641Z,159087.06
2022-11-07T15:24:50.938Z,159095.06
2022-11-07T15:27:28.227Z,159105.69
2022-11-07T15:30:00.378Z,159097.69
2022-11-07T15:32:46.099Z,159096.38
2022-11-07T15:35:43.118Z,159095.06
2022-11-07T15:38:19.658Z,159095.06
2022-11-07T15:40:48.049Z,159085.75
2022-11-07T15:43:15.856Z,159092.41
2022-11-07T15:45:43.715Z,159093.72
2022-11-07T15:48:22.157Z,159091.03
2022-11-07T15:50:50.312Z,159080.38
2022-11-07T15:53:23.425Z,159081.72
2022-11-07T15:56:04.852Z,159061.69
2022-11-07T15:58:32.626Z,159077.69
2022-11-07T16:01:00.793Z,159059.06
2022-11-07T16:03:28.583Z,159057.72
2022-11-07T16:06:01.853Z,159060.38
2022-11-07T16:08:29.862Z,159076.38
2022-11-07T16:11:01.885Z,159083.03
2022-11-07T16:13:29.651Z,159072.41
2022-11-07T16:16:00.520Z,159064.41
2022-11-07T16:18:28.233Z,159060.38
2022-11-07T16:20:55.888Z,159052.38
2022-11-07T16:23:23.228Z,159059.06
2022-11-07T16:25:51.438Z,159057.72
2022-11-07T16:28:33.376Z,159052.38
2022-11-07T16:31:01.474Z,159048.34
2022-11-07T16:33:28.896Z,159035.03
2022-11-07T16:36:01.420Z,159031.06
2022-11-07T16:38:34.938Z,159028.34
2022-11-07T16:41:03.256Z,159028.34
2022-11-07T16:43:35.180Z,159011.03
2022-11-07T16:46:02.905Z,159025.69
2022-11-07T16:48:30.597Z,159031.06
2022-11-07T16:50:58.332Z,159005.69
2022-11-07T16:53:26.192Z,159029.72
2022-11-07T16:55:55.343Z,159027.03
2022-11-07T16:58:31.006Z,159028.34
2022-11-07T17:01:01.867Z,159037.72
2022-11-07T17:03:30.272Z,159037.72
2022-11-07T17:05:59.774Z,159027.03
2022-11-07T17:08:47.922Z,159029.72
2022-11-07T17:11:18.053Z,159021.69
2022-11-07T17:13:45.792Z,159016.38
2022-11-07T17:16:25.771Z,159011.03
2022-11-07T17:18:53.444Z,159016.38
2022-11-07T17:21:26.810Z,159003.03
2022-11-07T17:23:56.286Z,159011.03
2022-11-07T17:26:30.338Z,159008.38
2022-11-07T17:28:59.121Z,159000.34
2022-11-07T17:31:26.821Z,159011.03
2022-11-07T17:33:54.135Z,159005.69
2022-11-07T17:36:26.041Z,159011.03
2022-11-07T17:38:54.469Z,158996.38
2022-11-07T17:41:22.324Z,159001.72
2022-11-07T17:43:50.516Z,159012.38
2022-11-07T17:46:21.061Z,159015.06
2022-11-07T17:48:48.811Z,159009.72
2022-11-07T17:51:16.632Z,159007.00
2022-11-07T17:53:43.817Z,159015.06
2022-11-07T17:56:31.076Z,159007.00
2022-11-07T17:59:18.742Z,158999.03
2022-11-07T18:01:46.954Z,158995.06
2022-11-07T18:04:14.633Z,158991.03
2022-11-07T18:06:43.527Z,158981.72
2022-11-07T18:09:14.687Z,158989.69
2022-11-07T18:11:43.664Z,158976.38
2022-11-07T18:14:13.191Z,158951.00
2022-11-07T18:16:41.169Z,158947.03
2022-11-07T18:19:09.908Z,158936.34
2022-11-07T18:21:37.558Z,158913.69
2022-11-07T18:24:05.202Z,158896.41
2022-11-07T18:26:33.673Z,158880.38
2022-11-07T18:29:03.741Z,158877.72
2022-11-07T18:31:31.520Z,158864.38
2022-11-07T18:34:00.318Z,158856.41
2022-11-07T18:36:28.303Z,158843.06
2022-11-07T18:38:55.597Z,158832.41
2022-11-07T18:41:24.301Z,158805.75
2022-11-07T18:43:54.010Z,158820.41
2022-11-07T18:46:22.141Z,158809.72
2022-11-07T18:48:50.868Z,158791.09
2022-11-07T18:51:24.121Z,158789.78
2022-11-07T18:53:53.342Z,158781.75
2022-11-07T18:56:21.760Z,158765.72
2022-11-07T18:58:49.222Z,158753.69
2022-11-07T19:01:19.890Z,158752.38
2022-11-07T19:03:48.036Z,158743.06
2022-11-07T19:06:17.804Z,158735.06
2022-11-07T19:08:49.575Z,158725.72
2022-11-07T19:11:25.534Z,158727.09
2022-11-07T19:13:53.295Z,158719.06
2022-11-07T19:16:24.776Z,158703.06
2022-11-07T19:18:52.312Z,158699.13
2022-11-07T19:21:21.350Z,158701.75
2022-11-07T19:23:50.104Z,158720.44
2022-11-07T19:26:19.347Z,158712.44
2022-11-07T19:28:47.271Z,158712.44
2022-11-07T19:31:15.021Z,158712.44
2022-11-07T19:33:42.969Z,158717.72
2022-11-07T19:36:20.130Z,158728.41
2022-11-07T19:38:48.359Z,158733.75
2022-11-07T19:41:17.353Z,158736.41
2022-11-07T19:43:48.593Z,158732.38
2022-11-07T19:46:19.306Z,158752.38
2022-11-07T19:48:47.830Z,158759.03
2022-11-07T19:51:21.644Z,158759.03
2022-11-07T19:53:55.881Z,158775.03
2022-11-07T19:56:25.480Z,158775.03
2022-11-07T19:58:53.712Z,158776.41
2022-11-07T20:01:27.837Z,158773.69
2022-11-07T20:03:56.160Z,158784.44
2022-11-07T20:06:27.247Z,158781.75
2022-11-07T20:08:54.728Z,158777.72
2022-11-07T20:11:24.291Z,158771.06
2022-11-07T20:13:54.736Z,158780.41
2022-11-07T20:16:24.145Z,158772.38
2022-11-07T20:18:51.644Z,158763.06
2022-11-07T20:21:21.646Z,158759.03
2022-11-07T20:23:50.076Z,158771.06
2022-11-07T20:26:20.538Z,158760.38
2022-11-07T20:28:49.247Z,158739.03
2022-11-07T20:31:19.918Z,158733.75
2022-11-07T20:33:47.656Z,158729.75
2022-11-07T20:36:16.984Z,158725.72
2022-11-07T20:38:44.911Z,158715.09
2022-11-07T20:41:13.665Z,158717.72
2022-11-07T20:43:43.660Z,158705.78
2022-11-07T20:46:14.728Z,158692.44
2022-11-07T20:48:43.061Z,158691.13
2022-11-07T20:51:13.171Z,158691.13
2022-11-07T20:53:46.819Z,158641.84
2022-11-07T20:56:18.095Z,158629.84
2022-11-07T20:58:46.628Z,158659.13
2022-11-07T21:01:17.354Z,158640.47
2022-11-07T21:03:45.316Z,158640.47
2022-11-07T21:06:13.243Z,158629.84
2022-11-07T21:08:42.381Z,158623.16
2022-11-07T21:11:11.443Z,158600.53
2022-11-07T21:13:39.448Z,158605.81
2022-11-07T21:16:08.036Z,158573.88
2022-11-07T21:18:37.463Z,158592.50
2022-11-07T21:21:18.762Z,158565.91
2022-11-07T21:23:46.950Z,158567.22
2022-11-07T21:26:17.426Z,158553.91
2022-11-07T21:28:44.985Z,158581.88
2022-11-07T21:31:15.262Z,158568.56
2022-11-07T21:33:42.705Z,158552.59
2022-11-07T21:36:12.123Z,158539.25
2022-11-07T21:38:39.676Z,158551.25
2022-11-07T21:41:09.195Z,158541.91
2022-11-07T21:43:36.751Z,158547.25
2022-11-07T21:46:24.450Z,158525.94
2022-11-07T21:48:52.229Z,158509.97
2022-11-07T21:51:22.344Z,158539.25
2022-11-07T21:53:50.091Z,158507.28
2022-11-07T21:56:29.201Z,158521.91
2022-11-07T21:58:59.062Z,158500.63
2022-11-07T22:01:28.219Z,158483.31
2022-11-07T22:04:12.462Z,158496.66
2022-11-07T22:06:44.159Z,158484.66
2022-11-07T22:09:15.031Z,158491.31
2022-11-07T22:11:43.719Z,158488.66
2022-11-07T22:14:14.623Z,158472.66
2022-11-07T22:16:42.770Z,158462.03
2022-11-07T22:19:12.705Z,158463.34
2022-11-07T22:21:41.230Z,158434.06
2022-11-07T22:24:09.459Z,158440.72
2022-11-07T22:26:37.460Z,158431.41
2022-11-07T22:29:04.880Z,158412.75
2022-11-07T22:31:32.571Z,158422.06
2022-11-07T22:34:00.979Z,158420.75
2022-11-07T22:36:29.382Z,158420.75
2022-11-07T22:38:57.812Z,158422.06
2022-11-07T22:41:27.182Z,158403.47
2022-11-07T22:43:55.144Z,158403.47
2022-11-07T22:46:24.790Z,158403.47
2022-11-07T22:48:53.394Z,158387.44
2022-11-07T22:51:27.866Z,158382.16
2022-11-07T22:54:03.378Z,158392.78
2022-11-07T22:56:32.371Z,158376.81
2022-11-07T22:59:00.026Z,158378.16
2022-11-07T23:01:34.317Z,158374.13
2022-11-07T23:04:01.991Z,158374.13
2022-11-07T23:06:30.417Z,158359.50
2022-11-07T23:08:58.800Z,158364.84
2022-11-07T23:11:50.804Z,158362.19
2022-11-07T23:14:20.242Z,158360.88
2022-11-07T23:16:53.284Z,158332.91
2022-11-07T23:19:23.537Z,158368.84
2022-11-07T23:21:53.776Z,158372.81
2022-11-07T23:24:21.269Z,158366.16
2022-11-07T23:26:49.607Z,158380.78
2022-11-07T23:29:19.808Z,158390.16
2022-11-07T23:31:48.758Z,158402.09
2022-11-07T23:34:16.971Z,158418.09
2022-11-07T23:36:45.133Z,158430.03
2022-11-07T23:39:15.804Z,158452.72
2022-11-07T23:41:43.737Z,158460.69
2022-11-07T23:44:11.294Z,158462.03
2022-11-07T23:46:57.641Z,158462.03
2022-11-07T23:49:43.377Z,158482.00
2022-11-07T23:52:11.028Z,158491.31
2022-11-07T23:54:57.035Z,158502.00
2022-11-07T23:57:24.936Z,158519.28
